Time;durP1;ratioP1;P1;durP2;ratioP2;P2;SDS_P1;SDS_P2;PMS_P1;PMS_P2;Temp;Humidity;BMP_temperature;BMP_pressure;BME280_temperature;BME280_humidity;BME280_pressure;Samples;Min_cycle;Max_cycle;Signal;HPM_P1;HPM_P2
2023/10/08 00:01:14;;;;;;;3.03;1.65;;;;;;;21.30;34.61;99662.66;4386612;32;33673;-71
2023/10/08 00:03:53;;;;;;;5.12;2.70;;;;;;;21.13;34.96;99667.41;4384412;32;34155;-71
2023/10/08 00:06:21;;;;;;;4.12;1.62;;;;;;;21.28;34.71;99659.25;4383658;32;34080;-71
2023/10/08 00:08:50;;;;;;;3.75;1.73;;;;;;;21.20;34.47;99654.75;4384518;32;33904;-72
2023/10/08 00:11:19;;;;;;;5.40;2.28;;;;;;;21.25;34.43;99643.28;4390374;32;34978;-71
2023/10/08 00:13:48;;;;;;;4.25;2.12;;;;;;;21.21;35.92;99644.69;4390283;32;35003;-72
2023/10/08 00:16:17;;;;;;;6.35;2.95;;;;;;;21.20;35.91;99638.41;4386473;32;33922;-71
2023/10/08 00:18:50;;;;;;;4.12;2.37;;;;;;;21.23;36.13;99635.31;4380779;32;34150;-71
2023/10/08 00:21:25;;;;;;;4.43;2.25;;;;;;;21.05;36.09;99641.09;4388820;32;33870;-72
2023/10/08 00:23:57;;;;;;;3.72;1.65;;;;;;;20.75;34.41;99633.91;4384884;32;33907;-72
2023/10/08 00:26:31;;;;;;;3.70;1.58;;;;;;;21.01;34.34;99628.06;4381753;32;34281;-74
2023/10/08 00:29:16;;;;;;;3.90;2.10;;;;;;;21.05;33.87;99627.50;4382937;32;33588;-71
2023/10/08 00:31:45;;;;;;;10.98;2.15;;;;;;;20.69;34.03;99624.62;4389034;32;33992;-71
2023/10/08 00:34:13;;;;;;;6.72;2.25;;;;;;;20.88;33.78;99636.84;4377907;32;35206;-70
2023/10/08 00:36:42;;;;;;;4.37;1.50;;;;;;;21.07;33.67;99638.22;4385725;32;34902;-70
2023/10/08 00:39:14;;;;;;;6.35;2.40;;;;;;;20.55;34.14;99631.69;4376017;32;34883;-70
2023/10/08 00:41:45;;;;;;;5.25;2.33;;;;;;;21.15;33.30;99624.50;4382443;32;33705;-70
2023/10/08 00:44:23;;;;;;;4.37;1.77;;;;;;;21.01;33.19;99612.59;4382805;32;34941;-70
2023/10/08 00:46:51;;;;;;;4.47;1.67;;;;;;;21.32;33.02;99614.31;4388118;32;33232;-70
2023/10/08 00:52:25;;;;;;;7.15;2.37;;;;;;;21.37;32.99;99606.44;4404736;32;33598;-70
2023/10/08 00:57:22;;;;;;;7.10;2.67;;;;;;;21.62;32.80;99626.91;4385759;32;33321;-70
2023/10/08 00:59:53;;;;;;;4.10;1.50;;;;;;;21.84;32.55;99613.37;4387695;32;33726;-71
2023/10/08 01:02:27;;;;;;;5.15;1.70;;;;;;;21.47;33.38;99615.16;4348534;32;34009;-71
2023/10/08 01:04:56;;;;;;;4.57;1.45;;;;;;;21.18;34.41;99610.53;4352432;32;34172;-71
2023/10/08 01:07:25;;;;;;;5.65;2.15;;;;;;;21.72;33.60;99614.88;4342897;32;33251;-71
2023/10/08 01:10:00;;;;;;;4.15;1.77;;;;;;;21.61;34.10;99608.88;4353854;32;34606;-71
2023/10/08 01:12:34;;;;;;;3.92;1.65;;;;;;;21.73;33.68;99613.84;4349152;32;34771;-70
2023/10/08 01:15:13;;;;;;;8.93;1.55;;;;;;;21.77;33.30;99605.13;4347752;32;33818;-70
2023/10/08 01:17:45;;;;;;;6.32;1.37;;;;;;;21.57;33.47;99612.16;4345477;32;34308;-70
2023/10/08 01:20:32;;;;;;;4.68;1.73;;;;;;;21.53;33.84;99606.25;4354242;32;34575;-71
2023/10/08 01:23:03;;;;;;;3.85;1.55;;;;;;;21.51;33.33;99593.84;4347083;32;35270;-70
2023/10/08 01:25:31;;;;;;;3.95;1.73;;;;;;;21.26;33.55;99590.56;4347027;32;34638;-71
2023/10/08 01:28:08;;;;;;;6.10;2.75;;;;;;;21.45;33.49;99595.47;4348055;32;33202;-70
2023/10/08 01:30:41;;;;;;;4.55;1.80;;;;;;;21.23;33.63;99593.66;4349646;32;33607;-69
2023/10/08 01:33:13;;;;;;;6.68;2.40;;;;;;;21.23;33.50;99589.06;4366964;32;33927;-70
2023/10/08 01:35:42;;;;;;;4.93;1.45;;;;;;;21.29;33.54;99579.31;4387061;32;34795;-70
2023/10/08 01:38:13;;;;;;;4.75;1.75;;;;;;;21.31;33.63;99577.22;4387630;32;33502;-71
2023/10/08 01:40:41;;;;;;;4.53;1.87;;;;;;;20.99;34.99;99578.41;4385496;32;35277;-70
2023/10/08 01:43:13;;;;;;;4.15;2.20;;;;;;;21.19;33.82;99574.13;4388780;32;34117;-71
2023/10/08 01:45:42;;;;;;;4.45;1.50;;;;;;;21.08;34.18;99572.72;4378151;32;33775;-71
2023/10/08 01:48:10;;;;;;;7.12;2.30;;;;;;;21.25;33.98;99576.13;4388098;32;34199;-71
2023/10/08 01:50:38;;;;;;;4.37;1.70;;;;;;;21.48;33.73;99564.31;4386940;32;33258;-70
2023/10/08 01:53:09;;;;;;;3.28;1.37;;;;;;;21.56;33.68;99561.47;4383768;32;33795;-70
2023/10/08 01:55:49;;;;;;;4.18;1.95;;;;;;;21.11;34.38;99564.16;4375909;32;33544;-70
2023/10/08 01:58:18;;;;;;;5.68;2.22;;;;;;;21.36;33.82;99556.59;4383174;32;33075;-70
2023/10/08 02:00:46;;;;;;;4.85;1.50;;;;;;;21.60;33.48;99551.87;4384727;32;33816;-71
2023/10/08 02:03:16;;;;;;;3.72;1.80;;;;;;;21.59;33.48;99558.37;4374901;32;34113;-69
2023/10/08 02:05:45;;;;;;;2.95;1.48;;;;;;;21.37;33.89;99549.28;4383241;32;33722;-70
2023/10/08 02:08:13;;;;;;;10.23;1.85;;;;;;;21.24;34.38;99535.47;4380521;32;33875;-70
2023/10/08 02:10:43;;;;;;;4.60;1.90;;;;;;;21.37;34.40;99552.00;4373945;32;35587;-70
2023/10/08 02:13:13;;;;;;;3.00;1.60;;;;;;;21.51;33.97;99550.28;4379370;32;33813;-71
2023/10/08 02:15:43;;;;;;;10.13;2.03;;;;;;;21.49;33.95;99553.22;4393769;32;33577;-71
2023/10/08 02:18:12;;;;;;;3.67;1.67;;;;;;;21.25;34.54;99553.47;4381889;32;33449;-70
2023/10/08 02:20:41;;;;;;;3.50;1.37;;;;;;;21.33;34.19;99548.78;4384966;32;34607;-70
2023/10/08 02:23:11;;;;;;;4.55;1.95;;;;;;;21.22;34.65;99541.09;4375835;32;34969;-71
2023/10/08 02:25:40;;;;;;;4.85;2.40;;;;;;;21.32;34.66;99525.31;4385277;32;34662;-71
2023/10/08 02:28:15;;;;;;;4.10;1.75;;;;;;;21.34;34.90;99536.00;4381304;32;33575;-70
2023/10/08 02:30:43;;;;;;;16.12;1.80;;;;;;;21.30;34.52;99532.00;4376679;32;34928;-71
2023/10/08 02:33:14;;;;;;;4.82;2.03;;;;;;;21.23;34.84;99541.94;4378095;32;34004;-70
2023/10/08 02:35:46;;;;;;;5.32;2.10;;;;;;;21.13;34.94;99532.19;4379410;32;33654;-70
2023/10/08 02:38:16;;;;;;;6.97;2.45;;;;;;;21.06;35.28;99536.69;4381014;32;32928;-70
2023/10/08 02:40:47;;;;;;;3.35;1.35;;;;;;;20.60;35.70;99535.97;4385808;32;33660;-70
2023/10/08 02:43:17;;;;;;;5.93;2.75;;;;;;;20.82;35.51;99521.47;4390697;32;33673;-70
2023/10/08 02:45:49;;;;;;;9.73;2.40;;;;;;;20.73;35.55;99513.59;4387865;32;33881;-70
2023/10/08 02:48:20;;;;;;;3.83;1.42;;;;;;;20.62;35.83;99515.72;4382314;32;33117;-70
2023/10/08 02:50:48;;;;;;;4.62;2.12;;;;;;;20.73;35.93;99522.59;4390703;32;34752;-70
2023/10/08 02:53:20;;;;;;;5.93;1.70;;;;;;;20.81;35.94;99527.13;4383943;32;34012;-70
2023/10/08 02:55:49;;;;;;;4.12;1.48;;;;;;;20.83;35.62;99535.91;4378012;32;34633;-70
2023/10/08 02:58:18;;;;;;;5.70;2.45;;;;;;;20.98;35.46;99542.22;4380154;32;33099;-70
2023/10/08 03:00:48;;;;;;;6.22;2.62;;;;;;;20.91;35.61;99535.84;4388044;32;33715;-70
2023/10/08 03:03:18;;;;;;;7.22;1.87;;;;;;;20.80;35.83;99519.97;4388375;32;36062;-70
2023/10/08 03:05:50;;;;;;;3.10;1.12;;;;;;;20.90;35.75;99515.97;4377335;32;34284;-70
2023/10/08 03:08:20;;;;;;;5.68;2.42;;;;;;;20.82;36.08;99515.19;4389947;32;35168;-70
2023/10/08 03:10:55;;;;;;;9.15;2.03;;;;;;;20.56;36.35;99502.88;4382476;32;35225;-71
2023/10/08 03:13:26;;;;;;;4.05;1.87;;;;;;;20.51;36.48;99507.13;4376464;32;34565;-71
2023/10/08 03:18:42;;;;;;;5.47;2.03;;;;;;;20.62;36.58;99510.28;4380798;32;31970;-71
2023/10/08 03:21:33;;;;;;;10.80;2.00;;;;;;;20.58;36.61;99503.56;4382883;32;33765;-71
2023/10/08 03:24:06;;;;;;;6.47;2.25;;;;;;;20.43;37.02;99503.47;4383459;32;35339;-71
2023/10/08 03:26:34;;;;;;;6.78;1.85;;;;;;;20.62;36.53;99485.81;4390972;32;34076;-71
2023/10/08 03:29:15;;;;;;;4.65;1.95;;;;;;;20.57;36.71;99487.41;4385546;32;33272;-71
2023/10/08 03:34:15;;;;;;;4.00;1.87;;;;;;;20.94;35.95;99490.06;4386671;32;35358;-73
2023/10/08 03:36:46;;;;;;;5.62;1.83;;;;;;;20.56;36.87;99481.13;4386371;32;34712;-74
2023/10/08 03:39:14;;;;;;;6.93;2.28;;;;;;;20.93;36.29;99479.38;4389599;32;33128;-74
2023/10/08 03:41:42;;;;;;;3.87;2.08;;;;;;;20.79;36.52;99480.22;4387969;32;33593;-73
2023/10/08 03:44:12;;;;;;;6.53;2.33;;;;;;;20.96;36.45;99470.81;4387389;32;34710;-73
2023/10/08 03:46:43;;;;;;;4.20;1.95;;;;;;;20.89;36.56;99472.59;4377225;32;34658;-73
2023/10/08 03:49:24;;;;;;;4.70;2.22;;;;;;;20.92;36.76;99472.22;4381178;32;33259;-73
2023/10/08 03:51:52;;;;;;;3.33;1.90;;;;;;;21.09;36.63;99467.44;4389232;32;34591;-71
2023/10/08 03:54:33;;;;;;;4.10;2.10;;;;;;;20.94;37.24;99457.41;4380638;32;34103;-72
2023/10/08 03:57:13;;;;;;;4.82;2.45;;;;;;;21.16;36.48;99452.87;4377684;32;34844;-72
2023/10/08 03:59:41;;;;;;;4.20;2.25;;;;;;;21.13;36.60;99458.72;4376699;32;34755;-73
2023/10/08 04:04:49;;;;;;;11.77;2.03;;;;;;;21.01;36.86;99456.66;4378781;32;34055;-73
2023/10/08 04:12:44;;;;;;;7.12;2.37;;;;;;;20.64;37.46;99458.44;4380244;32;33855;-71
2023/10/08 04:15:16;;;;;;;10.88;3.20;;;;;;;20.51;38.11;99447.31;4376964;32;34041;-72
2023/10/08 04:17:44;;;;;;;5.03;1.37;;;;;;;20.54;37.92;99455.97;4390825;32;34941;-72
2023/10/08 04:20:33;;;;;;;7.93;2.47;;;;;;;20.52;37.90;99458.06;4380808;32;33657;-71
2023/10/08 04:23:04;;;;;;;15.73;2.22;;;;;;;20.56;37.91;99453.09;4382579;32;34586;-72
2023/10/08 04:25:32;;;;;;;2.58;1.12;;;;;;;20.37;38.42;99443.56;4382725;32;33732;-72
2023/10/08 04:28:00;;;;;;;5.80;1.85;;;;;;;20.55;38.03;99451.41;4376504;32;33480;-71
2023/10/08 04:30:35;;;;;;;6.72;2.17;;;;;;;20.75;37.84;99451.72;4379515;32;32958;-72
2023/10/08 04:33:06;;;;;;;8.35;2.28;;;;;;;20.74;37.82;99450.88;4384477;32;33842;-71
2023/10/08 04:35:36;;;;;;;4.65;1.55;;;;;;;20.86;37.59;99446.63;4387674;32;33994;-71
2023/10/08 04:38:08;;;;;;;3.92;1.92;;;;;;;20.84;37.63;99453.31;4386361;32;34628;-71
2023/10/08 04:40:47;;;;;;;4.78;1.87;;;;;;;20.98;37.38;99451.59;4381662;32;32837;-71
2023/10/08 04:43:22;;;;;;;10.10;3.17;;;;;;;20.77;37.78;99452.34;4377335;32;33695;-71
2023/10/08 04:45:53;;;;;;;;;;;;;;;20.45;38.58;99451.66;4379593;32;34875;-74
2023/10/08 04:48:21;;;;;;;3.67;1.58;;;;;;;20.84;37.71;99436.97;4379107;32;34506;-73
2023/10/08 04:50:58;;;;;;;5.95;2.12;;;;;;;20.65;38.00;99458.25;4379296;32;35021;-73
2023/10/08 04:53:47;;;;;;;2.80;1.50;;;;;;;20.78;38.22;99452.16;4386056;32;34761;-71
2023/10/08 04:56:18;;;;;;;1.75;1.20;;;;;;;20.74;37.75;99448.16;4387899;32;34964;-72
2023/10/08 04:58:47;;;;;;;3.92;1.58;;;;;;;20.68;37.92;99444.28;4384299;32;34601;-73
2023/10/08 05:01:20;;;;;;;9.50;2.30;;;;;;;20.83;37.50;99438.00;4383260;32;33320;-76
2023/10/08 05:17:22;;;;;;;5.93;2.45;;;;;;;21.06;37.28;99427.84;4393099;32;34848;-77
2023/10/08 05:20:19;;;;;;;9.25;2.53;;;;;;;21.00;37.55;99444.94;4375560;32;34683;-75
2023/10/08 05:22:44;;;;;;;4.53;1.73;;;;;;;21.04;37.73;99443.53;4376013;32;34040;-75
2023/10/08 05:30:53;;;;;;;5.05;2.03;;;;;;;20.68;39.04;99452.44;4382204;32;32313;-74
2023/10/08 05:33:49;;;;;;;6.80;1.95;;;;;;;20.39;39.63;99458.66;4387232;32;34530;-76
2023/10/08 05:36:18;;;;;;;4.25;2.08;;;;;;;20.84;38.88;99450.59;4385877;32;33563;-73
2023/10/08 05:38:49;;;;;;;7.93;2.03;;;;;;;20.93;38.70;99452.19;4381504;32;33965;-74
2023/10/08 05:41:27;;;;;;;6.22;2.22;;;;;;;20.88;39.03;99446.44;4389857;32;34156;-73
2023/10/08 05:44:13;;;;;;;4.43;1.67;;;;;;;21.31;37.99;99452.00;4382868;32;33821;-73
2023/10/08 06:13:29;;;;;;;4.50;2.15;;;;;;;21.49;37.96;99490.59;4327518;33;33457;-73
2023/10/08 06:18:27;;;;;;;5.25;2.17;;;;;;;21.44;38.15;99501.19;4328921;33;33754;-73
2023/10/08 06:20:59;;;;;;;7.10;2.05;;;;;;;21.73;37.98;99516.62;4332720;32;33741;-72
2023/10/08 06:23:31;;;;;;;7.07;1.67;;;;;;;22.02;37.45;99504.78;4334791;33;33418;-73
2023/10/08 06:26:13;;;;;;;4.90;1.95;;;;;;;22.05;37.25;99518.03;4327227;33;33174;-73
2023/10/08 06:28:44;;;;;;;6.95;2.25;;;;;;;21.83;37.78;99510.88;4328759;33;33670;-73
2023/10/08 06:31:12;;;;;;;6.55;2.35;;;;;;;21.56;38.73;99520.63;4329560;32;33606;-74
2023/10/08 06:33:40;;;;;;;12.05;1.98;;;;;;;21.67;38.57;99519.25;4334095;33;34794;-73
2023/10/08 06:38:49;;;;;;;5.57;1.77;;;;;;;21.51;38.55;99526.66;4332912;32;33695;-74
2023/10/08 06:41:17;;;;;;;6.20;2.70;;;;;;;21.98;37.91;99530.72;4382634;32;33867;-73
2023/10/08 06:44:14;;;;;;;7.95;2.28;;;;;;;22.07;37.88;99535.00;4389665;32;33802;-73
2023/10/08 06:46:42;;;;;;;7.62;2.37;;;;;;;21.52;39.44;99528.31;4390775;32;33598;-73
2023/10/08 06:49:11;;;;;;;6.82;2.17;;;;;;;21.61;39.02;99539.97;4384598;32;34562;-73
2023/10/08 06:51:44;;;;;;;4.35;2.00;;;;;;;22.02;38.33;99536.63;4379394;32;33876;-73
2023/10/08 06:54:16;;;;;;;5.87;2.05;;;;;;;21.96;38.77;99543.72;4383535;32;33768;-72
2023/10/08 06:56:51;;;;;;;13.02;2.85;;;;;;;21.77;38.86;99556.06;4388892;32;34068;-73
2023/10/08 06:59:23;;;;;;;13.05;2.58;;;;;;;22.05;38.25;99548.00;4382501;32;33516;-72
2023/10/08 07:01:51;;;;;;;2.85;1.55;;;;;;;22.32;37.68;99540.97;4379017;32;34991;-73
2023/10/08 07:04:21;;;;;;;4.75;1.85;;;;;;;22.09;38.17;99537.56;4384016;32;33844;-72
2023/10/08 07:06:51;;;;;;;4.20;1.75;;;;;;;21.79;38.75;99543.09;4384287;32;34465;-72
2023/10/08 07:11:56;;;;;;;5.50;1.73;;;;;;;21.55;39.70;99547.00;4381401;32;33932;-72
2023/10/08 07:14:26;;;;;;;6.07;2.08;;;;;;;21.46;39.94;99533.69;4384230;32;34487;-73
2023/10/08 07:16:58;;;;;;;10.65;2.42;;;;;;;21.54;39.97;99525.41;4386704;32;33270;-72
2023/10/08 07:19:37;;;;;;;4.50;1.42;;;;;;;21.71;40.07;99535.06;4391197;32;34698;-72
2023/10/08 07:22:18;;;;;;;6.60;1.83;;;;;;;21.33;40.90;99520.72;4377464;32;34078;-72
2023/10/08 07:24:50;;;;;;;6.10;2.30;;;;;;;21.25;41.07;99520.81;4382249;32;34123;-72
2023/10/08 07:27:24;;;;;;;3.25;2.00;;;;;;;21.55;40.69;99517.06;4379493;32;33826;-72
2023/10/08 07:29:55;;;;;;;4.53;1.87;;;;;;;21.70;39.96;99519.75;4385896;32;33903;-72
2023/10/08 07:32:25;;;;;;;3.22;1.48;;;;;;;21.83;40.01;99529.97;4379705;32;35229;-72
2023/10/08 07:34:57;;;;;;;12.57;2.80;;;;;;;21.64;40.32;99536.84;4376797;32;33781;-73
2023/10/08 07:37:26;;;;;;;6.37;2.25;;;;;;;21.98;40.01;99532.62;4383838;32;33814;-72
2023/10/08 07:39:55;;;;;;;7.15;2.75;;;;;;;21.85;40.41;99536.03;4376913;32;34994;-72
2023/10/08 07:42:22;;;;;;;5.07;2.47;;;;;;;22.26;39.56;99538.16;4387232;32;34323;-72
2023/10/08 07:44:54;;;;;;;6.60;2.37;;;;;;;22.10;39.79;99537.34;4391161;32;33628;-72
2023/10/08 07:47:22;;;;;;;4.40;1.75;;;;;;;22.33;39.53;99528.16;4380538;32;34182;-72
2023/10/08 07:49:52;;;;;;;11.23;2.53;;;;;;;22.39;39.78;99521.09;4380944;32;34904;-72
2023/10/08 07:52:20;;;;;;;6.00;2.15;;;;;;;22.54;39.51;99519.13;4376820;32;33758;-72
2023/10/08 07:54:48;;;;;;;6.80;2.70;;;;;;;22.16;40.13;99521.31;4388328;32;35114;-72
2023/10/08 07:57:26;;;;;;;4.85;2.30;;;;;;;22.51;39.76;99516.78;4392815;32;33294;-72
2023/10/08 08:00:17;;;;;;;5.93;2.17;;;;;;;22.62;39.73;99523.59;4380008;32;33522;-72
2023/10/08 08:02:44;;;;;;;6.28;2.20;;;;;;;22.48;40.39;99528.94;4381596;32;32867;-73
2023/10/08 08:05:17;;;;;;;7.50;2.80;;;;;;;22.67;39.56;99527.41;4380324;32;33569;-72
2023/10/08 08:07:45;;;;;;;6.12;1.98;;;;;;;22.87;39.62;99522.09;4388375;32;34063;-73
2023/10/08 08:10:14;;;;;;;5.05;2.10;;;;;;;22.51;40.64;99519.53;4385646;32;33750;-72
2023/10/08 08:12:42;;;;;;;7.45;2.40;;;;;;;22.33;40.43;99525.44;4385539;32;34119;-72
2023/10/08 08:15:15;;;;;;;8.32;2.00;;;;;;;22.75;39.77;99512.75;4378573;32;34177;-72
2023/10/08 08:17:43;;;;;;;6.82;2.17;;;;;;;22.40;40.28;99500.94;4385450;32;33486;-72
2023/10/08 08:20:17;;;;;;;7.72;2.67;;;;;;;22.64;40.07;99524.25;4378190;32;33429;-73
2023/10/08 08:22:49;;;;;;;3.22;1.42;;;;;;;22.32;40.78;99523.75;4383800;32;34945;-72
2023/10/08 08:25:33;;;;;;;7.43;2.45;;;;;;;22.14;41.43;99516.00;4383785;32;35573;-72
2023/10/08 08:28:01;;;;;;;11.45;3.10;;;;;;;22.16;41.78;99529.47;4388308;32;33233;-72
2023/10/08 08:30:29;;;;;;;5.72;1.90;;;;;;;21.84;42.99;99537.09;4385359;32;33505;-73
2023/10/08 08:32:58;;;;;;;8.23;2.45;;;;;;;22.03;42.64;99541.06;4389176;32;33821;-73
2023/10/08 08:35:26;;;;;;;5.87;1.73;;;;;;;22.30;42.12;99529.37;4390631;32;34702;-73
2023/10/08 08:37:54;;;;;;;6.70;2.35;;;;;;;22.01;42.92;99533.06;4388936;32;34272;-72
2023/10/08 08:40:22;;;;;;;9.65;2.50;;;;;;;22.01;42.77;99540.41;4382705;32;34520;-72
2023/10/08 08:42:52;;;;;;;6.87;3.00;;;;;;;22.33;42.30;99530.88;4376667;32;35253;-73
2023/10/08 08:45:26;;;;;;;8.90;3.03;;;;;;;21.94;43.90;99540.34;4380674;32;33498;-73
2023/10/08 08:47:55;;;;;;;7.75;3.28;;;;;;;22.46;42.44;99522.81;4389032;32;34178;-73
2023/10/08 08:50:25;;;;;;;7.55;2.62;;;;;;;22.08;43.33;99533.97;4373850;32;35231;-72
2023/10/08 08:52:53;;;;;;;4.80;2.45;;;;;;;22.20;43.25;99533.50;4386658;32;35058;-72
2023/10/08 08:55:21;;;;;;;7.05;2.37;;;;;;;22.27;43.41;99545.31;4386774;32;34916;-73
2023/10/08 08:57:51;;;;;;;10.32;2.17;;;;;;;21.94;44.12;99547.66;4386915;32;33308;-73
2023/10/08 09:00:20;;;;;;;16.27;2.90;;;;;;;22.03;44.11;99541.91;4381081;32;33766;-72
2023/10/08 09:02:49;;;;;;;3.25;1.58;;;;;;;22.13;43.87;99540.75;4381237;32;34269;-72
2023/10/08 09:05:33;;;;;;;9.15;1.67;;;;;;;22.13;43.94;99529.84;4384832;32;35516;-72
2023/10/08 09:08:04;;;;;;;5.35;1.92;;;;;;;21.98;44.64;99532.62;4377324;32;33382;-72
2023/10/08 09:10:37;;;;;;;9.80;2.92;;;;;;;21.97;44.68;99556.28;4382886;32;34681;-72
2023/10/08 09:13:09;;;;;;;7.12;1.83;;;;;;;21.82;45.10;99552.75;4379397;32;34340;-72
2023/10/08 09:15:37;;;;;;;6.65;2.35;;;;;;;22.25;44.57;99561.03;4393382;32;33780;-72
2023/10/08 09:18:06;;;;;;;5.43;1.98;;;;;;;22.06;45.03;99571.50;4385037;32;34348;-72
2023/10/08 09:20:43;;;;;;;17.12;3.20;;;;;;;22.14;44.71;99573.25;4384416;32;33732;-72
2023/10/08 09:23:21;;;;;;;7.55;1.80;;;;;;;22.13;45.07;99587.91;4382241;32;35317;-72
2023/10/08 09:25:49;;;;;;;7.50;2.85;;;;;;;21.90;45.52;99589.97;4387883;32;33720;-72
2023/10/08 09:28:18;;;;;;;3.92;1.95;;;;;;;21.77;45.59;99601.53;4383171;32;34224;-73
2023/10/08 09:30:48;;;;;;;5.87;2.65;;;;;;;22.29;45.00;99604.06;4374050;32;33731;-73
2023/10/08 09:33:17;;;;;;;9.43;2.80;;;;;;;22.21;44.90;99611.50;4383619;32;33855;-73
2023/10/08 09:35:46;;;;;;;14.63;2.58;;;;;;;22.29;44.94;99620.41;4377372;32;34902;-73
2023/10/08 09:38:22;;;;;;;8.05;2.70;;;;;;;22.46;44.63;99642.81;4386109;32;34728;-73
2023/10/08 09:40:53;;;;;;;9.98;2.90;;;;;;;22.19;44.98;99640.84;4389593;32;34044;-73
2023/10/08 09:43:22;;;;;;;6.22;1.80;;;;;;;21.83;45.81;99652.56;4378922;32;33675;-73
2023/10/08 09:46:07;;;;;;;5.93;2.62;;;;;;;21.88;45.95;99631.00;4392439;32;33510;-73
2023/10/08 09:48:41;;;;;;;4.28;1.62;;;;;;;21.83;46.30;99639.78;4376522;32;33123;-73
2023/10/08 09:51:12;;;;;;;4.47;1.87;;;;;;;21.20;47.80;99651.19;4392612;32;33618;-73
2023/10/08 09:53:47;;;;;;;5.22;1.83;;;;;;;21.46;47.40;99651.59;4387696;32;33907;-72
2023/10/08 09:56:15;;;;;;;14.52;2.35;;;;;;;21.71;47.17;99646.72;4384679;32;34271;-70
2023/10/08 09:58:43;;;;;;;15.13;2.40;;;;;;;21.91;46.91;99652.44;4385868;32;33063;-71
2023/10/08 10:01:11;;;;;;;5.22;2.20;;;;;;;21.52;47.88;99659.03;4369909;32;34226;-73
2023/10/08 10:03:42;;;;;;;11.35;2.10;;;;;;;21.57;47.78;99664.78;4380567;32;33401;-72
2023/10/08 10:06:18;;;;;;;8.68;2.28;;;;;;;21.43;48.45;99679.22;4379158;32;33523;-71
2023/10/08 10:08:48;;;;;;;10.38;2.30;;;;;;;21.32;49.20;99702.28;4383527;32;33253;-71
2023/10/08 10:11:16;;;;;;;6.65;2.22;;;;;;;20.74;50.91;99698.34;4375504;32;34423;-70
2023/10/08 10:13:50;;;;;;;8.60;2.17;;;;;;;20.43;51.88;99723.66;4385502;32;35416;-71
2023/10/08 10:16:21;;;;;;;4.03;1.80;;;;;;;20.78;51.13;99737.75;4375483;32;34325;-71
2023/10/08 10:18:49;;;;;;;6.18;2.15;;;;;;;20.20;52.78;99730.94;4374440;32;33380;-71
2023/10/08 10:21:17;;;;;;;5.60;1.77;;;;;;;20.18;52.97;99733.81;4395636;32;33412;-71
2023/10/08 10:23:46;;;;;;;8.23;2.37;;;;;;;20.68;51.53;99734.44;4397483;32;35167;-70
2023/10/08 10:26:40;;;;;;;5.07;1.45;;;;;;;20.54;51.77;99722.44;4392648;32;34917;-70
2023/10/08 10:29:11;;;;;;;9.00;1.95;;;;;;;20.69;51.12;99712.47;4383483;32;33128;-70
2023/10/08 10:31:44;;;;;;;3.85;1.65;;;;;;;20.42;51.73;99723.84;4386279;32;35588;-70
2023/10/08 10:34:15;;;;;;;2.53;0.95;;;;;;;20.36;51.53;99714.53;4379149;32;32791;-71
2023/10/08 10:36:49;;;;;;;4.68;1.60;;;;;;;21.02;50.13;99714.09;4381013;32;33701;-71
2023/10/08 10:39:26;;;;;;;1.55;0.60;;;;;;;20.88;49.87;99713.88;4385281;32;34184;-72
2023/10/08 10:41:57;;;;;;;3.95;1.08;;;;;;;21.07;49.35;99722.56;4396684;32;34501;-73
2023/10/08 10:44:25;;;;;;;2.67;1.00;;;;;;;20.81;49.89;99726.50;4387579;32;35277;-71
2023/10/08 10:49:49;;;;;;;1.35;0.62;;;;;;;21.38;48.33;99734.22;4382982;32;33324;-72
2023/10/08 10:52:34;;;;;;;1.17;0.62;;;;;;;21.09;48.75;99732.25;4381063;32;34639;-72
2023/10/08 10:55:18;;;;;;;;;;;;;;;20.94;48.65;99734.91;4382891;32;33659;-72
2023/10/08 10:58:11;;;;;;;0.90;0.50;;;;;;;20.83;48.72;99737.19;4391874;32;34273;-72
2023/10/08 11:03:16;;;;;;;0.80;0.47;;;;;;;21.04;48.07;99761.88;4385051;32;34708;-72
2023/10/08 11:05:48;;;;;;;0.30;0.30;;;;;;;20.54;49.44;99768.66;4386598;32;34187;-72
2023/10/08 11:08:18;;;;;;;1.12;0.52;;;;;;;20.85;47.40;99768.62;4386170;32;33647;-72
2023/10/08 11:10:51;;;;;;;0.95;0.62;;;;;;;20.21;48.89;99779.66;4365738;32;33145;-73
2023/10/08 11:13:20;;;;;;;1.42;0.35;;;;;;;19.87;49.50;99779.09;4388710;32;34629;-72
2023/10/08 11:15:51;;;;;;;0.50;0.50;;;;;;;20.96;46.71;99772.81;4387930;32;33614;-73
2023/10/08 11:18:21;;;;;;;1.55;0.50;;;;;;;20.29;48.14;99792.38;4395677;32;34667;-73
2023/10/08 11:23:43;;;;;;;0.43;0.30;;;;;;;20.60;46.81;99788.84;4358602;32;33819;-72
2023/10/08 11:26:12;;;;;;;0.17;0.17;;;;;;;20.37;47.34;99784.19;4355299;32;35077;-72
2023/10/08 11:28:42;;;;;;;1.30;0.10;;;;;;;20.27;46.51;99775.38;4357140;32;33614;-72
2023/10/08 11:31:11;;;;;;;0.17;0.17;;;;;;;20.16;46.00;99782.06;4358365;32;32927;-72
2023/10/08 11:33:41;;;;;;;0.62;0.30;;;;;;;19.73;44.45;99786.94;4358492;32;33827;-72
2023/10/08 11:36:18;;;;;;;0.40;0.13;;;;;;;19.68;44.98;99783.91;4357391;32;33922;-72
2023/10/08 11:38:53;;;;;;;1.00;0.20;;;;;;;19.52;45.36;99792.03;4357477;32;33914;-71
2023/10/08 11:41:20;;;;;;;7.93;0.47;;;;;;;19.40;45.21;99787.97;4359907;32;33178;-72
2023/10/08 11:43:53;;;;;;;0.30;0.20;;;;;;;19.31;44.73;99798.81;4358735;32;33776;-72
2023/10/08 11:46:27;;;;;;;0.10;0.10;;;;;;;19.52;44.76;99792.03;4353589;32;35242;-72
2023/10/08 11:48:58;;;;;;;0.30;0.10;;;;;;;19.41;43.26;99808.66;4356645;32;33772;-72
2023/10/08 11:51:27;;;;;;;0.10;0.10;;;;;;;18.99;44.27;99801.50;4352647;32;33798;-72
2023/10/08 11:53:57;;;;;;;0.40;0.15;;;;;;;18.87;44.33;99800.97;4354024;32;34042;-72
2023/10/08 11:56:25;;;;;;;0.52;0.20;;;;;;;19.39;43.64;99797.97;4359294;32;34139;-72
2023/10/08 11:58:56;;;;;;;1.45;0.32;;;;;;;19.43;43.79;99801.19;4356020;32;33680;-72
2023/10/08 12:01:24;;;;;;;0.20;0.20;;;;;;;19.02;44.57;99806.59;4378859;32;32042;-72
2023/10/08 12:03:59;;;;;;;3.28;0.32;;;;;;;19.07;44.43;99815.09;4380623;32;34240;-73
2023/10/08 12:06:30;;;;;;;0.10;0.10;;;;;;;18.46;45.56;99814.41;4383430;32;33565;-74
2023/10/08 12:09:11;;;;;;;1.35;0.45;;;;;;;18.70;44.48;99827.19;4386379;32;34419;-72
2023/10/08 12:11:39;;;;;;;0.98;0.30;;;;;;;18.90;44.31;99837.75;4380912;32;34274;-72
2023/10/08 12:14:07;;;;;;;2.67;0.55;;;;;;;18.62;44.25;99836.16;4380611;32;34781;-72
2023/10/08 12:16:41;;;;;;;0.98;0.35;;;;;;;18.75;43.85;99851.97;4385814;32;33778;-73
2023/10/08 12:19:15;;;;;;;0.80;0.30;;;;;;;18.65;43.96;99850.38;4387807;32;34758;-71
2023/10/08 12:21:47;;;;;;;0.57;0.30;;;;;;;18.60;43.77;99851.72;4381775;32;32970;-71
2023/10/08 12:24:17;;;;;;;0.10;0.10;;;;;;;18.69;43.87;99858.03;4389649;32;33673;-71
2023/10/08 12:26:49;;;;;;;0.13;0.10;;;;;;;18.38;44.29;99865.84;4385767;32;34903;-72
2023/10/08 12:29:18;;;;;;;1.05;0.70;;;;;;;18.74;43.60;99863.81;4380250;32;34460;-72
2023/10/08 12:31:47;;;;;;;2.28;0.40;;;;;;;19.17;42.93;99867.31;4381373;32;33615;-72
2023/10/08 12:34:16;;;;;;;0.25;0.22;;;;;;;18.98;43.54;99878.47;4392691;32;34701;-73
2023/10/08 12:36:45;;;;;;;0.85;0.20;;;;;;;18.19;44.62;99872.34;4386859;32;35208;-73
2023/10/08 12:39:16;;;;;;;0.22;0.10;;;;;;;18.48;43.80;99866.56;4385569;32;33585;-72
2023/10/08 12:41:44;;;;;;;0.65;0.30;;;;;;;18.81;43.30;99885.69;4385446;32;34207;-72
2023/10/08 12:44:15;;;;;;;0.22;0.20;;;;;;;18.48;43.66;99887.41;4380447;32;33758;-70
2023/10/08 12:46:43;;;;;;;0.20;0.20;;;;;;;18.12;44.74;99893.81;4385030;32;34171;-71
2023/10/08 12:49:11;;;;;;;0.10;0.10;;;;;;;17.82;44.77;99891.59;4389635;32;33436;-72
2023/10/08 12:51:41;;;;;;;0.10;0.10;;;;;;;18.40;43.41;99890.94;4390936;32;33092;-71
2023/10/08 12:54:21;;;;;;;2.42;0.10;;;;;;;18.35;43.58;99891.41;4389107;32;35104;-71
2023/10/08 12:56:49;;;;;;;7.12;0.40;;;;;;;18.09;44.21;99898.69;4383432;32;35380;-71
2023/10/08 12:59:23;;;;;;;0.52;0.22;;;;;;;17.77;44.61;99900.16;4364191;32;34637;-71
2023/10/08 13:01:53;;;;;;;2.03;0.20;;;;;;;17.61;45.28;99919.78;4384439;32;33313;-72
2023/10/08 13:04:28;;;;;;;0.43;0.30;;;;;;;17.90;44.96;99924.13;4388856;32;33654;-72
2023/10/08 13:07:02;;;;;;;0.20;0.20;;;;;;;17.75;44.53;99926.50;4387826;32;34256;-72
2023/10/08 13:09:36;;;;;;;0.28;0.10;;;;;;;17.61;44.99;99929.78;4369868;32;34231;-70
2023/10/08 13:12:05;;;;;;;1.45;0.37;;;;;;;17.36;45.53;99925.97;4384823;32;33421;-70
2023/10/08 13:14:34;;;;;;;0.20;0.10;;;;;;;17.66;44.94;99931.00;4378562;32;33496;-69
2023/10/08 13:17:03;;;;;;;0.13;0.13;;;;;;;17.76;44.32;99933.63;4386729;32;35030;-69